sensor_id;sensor_type;location;lat;lon;timestamp;temperature;humidity
13742;DHT22;8461;52.356;10.704;2022-08-21T00:01:31;16.70;99.90
13742;DHT22;8461;52.356;10.704;2022-08-21T00:03:56;16.60;99.90
13742;DHT22;8461;52.356;10.704;2022-08-21T00:06:23;16.60;99.90
13742;DHT22;8461;52.356;10.704;2022-08-21T00:08:50;16.60;99.90
13742;DHT22;8461;52.356;10.704;2022-08-21T00:11:16;16.40;99.90
13742;DHT22;8461;52.356;10.704;2022-08-21T00:13:41;16.40;99.90
13742;DHT22;8461;52.356;10.704;2022-08-21T00:16:07;16.40;99.90
13742;DHT22;8461;52.356;10.704;2022-08-21T00:18:33;16.30;99.90
13742;DHT22;8461;52.356;10.704;2022-08-21T00:20:59;16.20;99.90
13742;DHT22;8461;52.356;10.704;2022-08-21T00:23:25;16.10;99.90
13742;DHT22;8461;52.356;10.704;2022-08-21T00:25:50;16.00;99.90
13742;DHT22;8461;52.356;10.704;2022-08-21T00:28:16;16.00;99.90
13742;DHT22;8461;52.356;10.704;2022-08-21T00:30:42;16.00;99.90
13742;DHT22;8461;52.356;10.704;2022-08-21T00:33:10;16.00;99.90
13742;DHT22;8461;52.356;10.704;2022-08-21T00:35:38;16.00;99.90
13742;DHT22;8461;52.356;10.704;2022-08-21T00:38:06;16.00;99.90
13742;DHT22;8461;52.356;10.704;2022-08-21T00:43:04;16.00;99.90
13742;DHT22;8461;52.356;10.704;2022-08-21T00:45:30;16.00;99.90
13742;DHT22;8461;52.356;10.704;2022-08-21T00:47:57;16.00;99.90
13742;DHT22;8461;52.356;10.704;2022-08-21T00:50:26;15.90;99.90
13742;DHT22;8461;52.356;10.704;2022-08-21T00:52:52;15.90;99.90
13742;DHT22;8461;52.356;10.704;2022-08-21T00:55:19;15.80;99.90
13742;DHT22;8461;52.356;10.704;2022-08-21T00:57:48;15.80;99.90
13742;DHT22;8461;52.356;10.704;2022-08-21T01:00:19;15.70;99.90
13742;DHT22;8461;52.356;10.704;2022-08-21T01:02:45;15.50;99.90
13742;DHT22;8461;52.356;10.704;2022-08-21T01:05:11;15.40;99.90
13742;DHT22;8461;52.356;10.704;2022-08-21T01:07:37;15.30;99.90
13742;DHT22;8461;52.356;10.704;2022-08-21T01:10:05;15.20;99.90
13742;DHT22;8461;52.356;10.704;2022-08-21T01:12:32;15.10;99.90
13742;DHT22;8461;52.356;10.704;2022-08-21T01:14:57;15.10;99.90
13742;DHT22;8461;52.356;10.704;2022-08-21T01:17:24;15.10;99.90
13742;DHT22;8461;52.356;10.704;2022-08-21T01:19:51;15.10;99.90
13742;DHT22;8461;52.356;10.704;2022-08-21T01:22:17;15.00;99.90
13742;DHT22;8461;52.356;10.704;2022-08-21T01:24:44;15.00;99.90
13742;DHT22;8461;52.356;10.704;2022-08-21T01:27:10;15.00;99.90
13742;DHT22;8461;52.356;10.704;2022-08-21T01:29:45;14.90;99.90
13742;DHT22;8461;52.356;10.704;2022-08-21T01:32:15;14.90;99.90
13742;DHT22;8461;52.356;10.704;2022-08-21T01:34:43;14.90;99.90
13742;DHT22;8461;52.356;10.704;2022-08-21T01:37:10;14.90;99.90
13742;DHT22;8461;52.356;10.704;2022-08-21T01:39:36;15.00;99.90
13742;DHT22;8461;52.356;10.704;2022-08-21T01:42:03;15.00;99.90
13742;DHT22;8461;52.356;10.704;2022-08-21T01:44:29;14.90;99.90
13742;DHT22;8461;52.356;10.704;2022-08-21T01:46:58;14.80;99.90
13742;DHT22;8461;52.356;10.704;2022-08-21T01:49:23;14.80;99.90
13742;DHT22;8461;52.356;10.704;2022-08-21T01:51:49;14.70;99.90
13742;DHT22;8461;52.356;10.704;2022-08-21T01:54:14;14.60;99.90
13742;DHT22;8461;52.356;10.704;2022-08-21T01:56:43;14.50;99.90
13742;DHT22;8461;52.356;10.704;2022-08-21T01:59:10;14.50;99.90
13742;DHT22;8461;52.356;10.704;2022-08-21T02:01:36;14.50;99.90
13742;DHT22;8461;52.356;10.704;2022-08-21T02:04:05;14.60;99.90
13742;DHT22;8461;52.356;10.704;2022-08-21T02:06:31;14.50;99.90
13742;DHT22;8461;52.356;10.704;2022-08-21T02:08:56;14.50;99.90
13742;DHT22;8461;52.356;10.704;2022-08-21T02:11:22;14.40;99.90
13742;DHT22;8461;52.356;10.704;2022-08-21T02:13:47;14.40;99.90
13742;DHT22;8461;52.356;10.704;2022-08-21T02:16:13;14.30;99.90
13742;DHT22;8461;52.356;10.704;2022-08-21T02:18:39;14.20;99.90
13742;DHT22;8461;52.356;10.704;2022-08-21T02:21:05;14.20;99.90
13742;DHT22;8461;52.356;10.704;2022-08-21T02:23:31;14.20;99.90
13742;DHT22;8461;52.356;10.704;2022-08-21T02:25:58;14.20;99.90
13742;DHT22;8461;52.356;10.704;2022-08-21T02:28:25;14.10;99.90
13742;DHT22;8461;52.356;10.704;2022-08-21T02:30:51;14.10;99.90
13742;DHT22;8461;52.356;10.704;2022-08-21T02:33:17;14.00;99.90
13742;DHT22;8461;52.356;10.704;2022-08-21T02:35:45;14.00;99.90
13742;DHT22;8461;52.356;10.704;2022-08-21T02:38:14;13.90;99.90
13742;DHT22;8461;52.356;10.704;2022-08-21T02:40:42;13.90;99.90
13742;DHT22;8461;52.356;10.704;2022-08-21T02:43:08;13.80;99.90
13742;DHT22;8461;52.356;10.704;2022-08-21T02:45:35;13.80;99.90
13742;DHT22;8461;52.356;10.704;2022-08-21T02:48:04;13.80;99.90
13742;DHT22;8461;52.356;10.704;2022-08-21T02:50:34;13.80;99.90
13742;DHT22;8461;52.356;10.704;2022-08-21T02:53:00;13.70;99.90
13742;DHT22;8461;52.356;10.704;2022-08-21T02:55:28;13.70;99.90
13742;DHT22;8461;52.356;10.704;2022-08-21T02:57:55;13.80;99.90
13742;DHT22;8461;52.356;10.704;2022-08-21T03:00:23;13.70;99.90
13742;DHT22;8461;52.356;10.704;2022-08-21T03:02:50;13.70;99.90
13742;DHT22;8461;52.356;10.704;2022-08-21T03:05:17;13.60;99.90
13742;DHT22;8461;52.356;10.704;2022-08-21T03:07:43;13.50;99.90
13742;DHT22;8461;52.356;10.704;2022-08-21T03:10:10;13.40;99.90
13742;DHT22;8461;52.356;10.704;2022-08-21T03:12:36;13.20;99.90
13742;DHT22;8461;52.356;10.704;2022-08-21T03:15:09;13.20;99.90
13742;DHT22;8461;52.356;10.704;2022-08-21T03:17:35;13.20;99.90
13742;DHT22;8461;52.356;10.704;2022-08-21T03:20:02;13.20;99.90
13742;DHT22;8461;52.356;10.704;2022-08-21T03:22:28;13.20;99.90
13742;DHT22;8461;52.356;10.704;2022-08-21T03:24:54;13.20;99.90
13742;DHT22;8461;52.356;10.704;2022-08-21T03:27:20;13.10;99.90
13742;DHT22;8461;52.356;10.704;2022-08-21T03:29:45;13.00;99.90
13742;DHT22;8461;52.356;10.704;2022-08-21T03:32:11;12.80;99.90
13742;DHT22;8461;52.356;10.704;2022-08-21T03:34:37;12.70;99.90
13742;DHT22;8461;52.356;10.704;2022-08-21T03:37:05;12.80;99.90
13742;DHT22;8461;52.356;10.704;2022-08-21T03:39:31;12.80;99.90
13742;DHT22;8461;52.356;10.704;2022-08-21T03:41:56;12.80;99.90
13742;DHT22;8461;52.356;10.704;2022-08-21T03:44:22;12.70;99.90
13742;DHT22;8461;52.356;10.704;2022-08-21T03:46:48;12.80;99.90
13742;DHT22;8461;52.356;10.704;2022-08-21T03:49:14;12.80;99.90
13742;DHT22;8461;52.356;10.704;2022-08-21T03:51:39;12.80;99.90
13742;DHT22;8461;52.356;10.704;2022-08-21T03:54:05;12.90;99.90
13742;DHT22;8461;52.356;10.704;2022-08-21T03:56:31;12.80;99.90
13742;DHT22;8461;52.356;10.704;2022-08-21T03:58:56;12.80;99.90
13742;DHT22;8461;52.356;10.704;2022-08-21T04:01:22;12.80;99.90
13742;DHT22;8461;52.356;10.704;2022-08-21T04:03:48;12.80;99.90
13742;DHT22;8461;52.356;10.704;2022-08-21T04:06:13;12.70;99.90
13742;DHT22;8461;52.356;10.704;2022-08-21T04:08:39;12.70;99.90
13742;DHT22;8461;52.356;10.704;2022-08-21T04:11:07;12.60;99.90
13742;DHT22;8461;52.356;10.704;2022-08-21T04:13:33;12.50;99.90
13742;DHT22;8461;52.356;10.704;2022-08-21T04:15:59;12.40;99.90
13742;DHT22;8461;52.356;10.704;2022-08-21T04:18:25;12.40;99.90
13742;DHT22;8461;52.356;10.704;2022-08-21T04:20:51;12.50;99.90
13742;DHT22;8461;52.356;10.704;2022-08-21T04:23:19;12.50;99.90
13742;DHT22;8461;52.356;10.704;2022-08-21T04:25:45;12.50;99.90
13742;DHT22;8461;52.356;10.704;2022-08-21T04:28:10;12.50;99.90
13742;DHT22;8461;52.356;10.704;2022-08-21T04:30:36;12.40;99.90
13742;DHT22;8461;52.356;10.704;2022-08-21T04:33:01;12.40;99.90
13742;DHT22;8461;52.356;10.704;2022-08-21T04:35:29;12.20;99.90
13742;DHT22;8461;52.356;10.704;2022-08-21T04:37:55;12.10;99.90
13742;DHT22;8461;52.356;10.704;2022-08-21T04:40:22;12.20;99.90
13742;DHT22;8461;52.356;10.704;2022-08-21T04:42:51;12.20;99.90
13742;DHT22;8461;52.356;10.704;2022-08-21T04:45:33;12.20;99.90
13742;DHT22;8461;52.356;10.704;2022-08-21T04:48:00;12.30;99.90
13742;DHT22;8461;52.356;10.704;2022-08-21T04:50:41;12.20;99.90
13742;DHT22;8461;52.356;10.704;2022-08-21T04:53:18;12.20;99.90
13742;DHT22;8461;52.356;10.704;2022-08-21T04:55:45;12.20;99.90
13742;DHT22;8461;52.356;10.704;2022-08-21T04:58:14;12.20;99.90
13742;DHT22;8461;52.356;10.704;2022-08-21T05:00:40;12.20;99.90
13742;DHT22;8461;52.356;10.704;2022-08-21T05:03:07;12.30;99.90
13742;DHT22;8461;52.356;10.704;2022-08-21T05:05:34;12.40;99.90
13742;DHT22;8461;52.356;10.704;2022-08-21T05:08:02;12.50;99.90
13742;DHT22;8461;52.356;10.704;2022-08-21T05:10:27;12.60;99.90
13742;DHT22;8461;52.356;10.704;2022-08-21T05:12:54;12.70;99.90
13742;DHT22;8461;52.356;10.704;2022-08-21T05:15:20;12.80;99.90
13742;DHT22;8461;52.356;10.704;2022-08-21T05:17:46;12.80;99.90
13742;DHT22;8461;52.356;10.704;2022-08-21T05:20:13;12.90;99.90
13742;DHT22;8461;52.356;10.704;2022-08-21T05:22:39;12.90;99.90
13742;DHT22;8461;52.356;10.704;2022-08-21T05:25:06;13.00;99.90
13742;DHT22;8461;52.356;10.704;2022-08-21T05:27:32;13.10;99.90
13742;DHT22;8461;52.356;10.704;2022-08-21T05:29:58;13.10;99.90
13742;DHT22;8461;52.356;10.704;2022-08-21T05:32:24;13.20;99.90
13742;DHT22;8461;52.356;10.704;2022-08-21T05:34:50;13.30;99.90
13742;DHT22;8461;52.356;10.704;2022-08-21T05:37:16;13.40;99.90
13742;DHT22;8461;52.356;10.704;2022-08-21T05:39:41;13.50;99.90
13742;DHT22;8461;52.356;10.704;2022-08-21T05:42:07;13.60;99.90
13742;DHT22;8461;52.356;10.704;2022-08-21T05:44:33;13.80;99.90
13742;DHT22;8461;52.356;10.704;2022-08-21T05:47:07;13.90;99.90
13742;DHT22;8461;52.356;10.704;2022-08-21T05:49:33;14.10;99.90
13742;DHT22;8461;52.356;10.704;2022-08-21T05:51:59;14.20;99.90
13742;DHT22;8461;52.356;10.704;2022-08-21T05:54:25;14.40;99.90
13742;DHT22;8461;52.356;10.704;2022-08-21T05:56:51;14.50;99.90
13742;DHT22;8461;52.356;10.704;2022-08-21T05:59:17;14.70;99.90
13742;DHT22;8461;52.356;10.704;2022-08-21T06:01:43;14.90;99.90
13742;DHT22;8461;52.356;10.704;2022-08-21T06:04:10;15.10;99.90
13742;DHT22;8461;52.356;10.704;2022-08-21T06:06:36;15.20;99.90
13742;DHT22;8461;52.356;10.704;2022-08-21T06:09:03;15.30;99.90
13742;DHT22;8461;52.356;10.704;2022-08-21T06:11:29;15.30;99.90
13742;DHT22;8461;52.356;10.704;2022-08-21T06:13:55;15.40;99.90
13742;DHT22;8461;52.356;10.704;2022-08-21T06:16:20;15.40;99.90
13742;DHT22;8461;52.356;10.704;2022-08-21T06:18:47;15.30;99.90
13742;DHT22;8461;52.356;10.704;2022-08-21T06:21:13;15.30;99.90
13742;DHT22;8461;52.356;10.704;2022-08-21T06:23:39;15.40;99.90
13742;DHT22;8461;52.356;10.704;2022-08-21T06:26:06;15.50;99.90
13742;DHT22;8461;52.356;10.704;2022-08-21T06:28:32;15.50;99.90
13742;DHT22;8461;52.356;10.704;2022-08-21T06:30:58;15.60;99.90
13742;DHT22;8461;52.356;10.704;2022-08-21T06:33:24;15.70;99.90
13742;DHT22;8461;52.356;10.704;2022-08-21T06:35:50;15.80;99.90
13742;DHT22;8461;52.356;10.704;2022-08-21T06:38:16;15.90;99.90
13742;DHT22;8461;52.356;10.704;2022-08-21T06:40:41;16.10;99.90
13742;DHT22;8461;52.356;10.704;2022-08-21T06:43:12;16.30;99.90
13742;DHT22;8461;52.356;10.704;2022-08-21T06:45:39;16.30;99.90
13742;DHT22;8461;52.356;10.704;2022-08-21T06:48:05;16.40;99.90
13742;DHT22;8461;52.356;10.704;2022-08-21T06:50:32;16.50;99.90
13742;DHT22;8461;52.356;10.704;2022-08-21T06:53:06;16.70;99.90
13742;DHT22;8461;52.356;10.704;2022-08-21T06:55:32;16.80;99.90
13742;DHT22;8461;52.356;10.704;2022-08-21T06:57:58;17.00;99.90
13742;DHT22;8461;52.356;10.704;2022-08-21T07:00:24;17.20;99.90
13742;DHT22;8461;52.356;10.704;2022-08-21T07:02:50;17.40;99.90
13742;DHT22;8461;52.356;10.704;2022-08-21T07:05:15;17.60;99.90
13742;DHT22;8461;52.356;10.704;2022-08-21T07:07:41;17.80;99.90
13742;DHT22;8461;52.356;10.704;2022-08-21T07:10:06;18.00;99.90
13742;DHT22;8461;52.356;10.704;2022-08-21T07:12:32;18.10;99.90
13742;DHT22;8461;52.356;10.704;2022-08-21T07:14:58;18.20;99.90
13742;DHT22;8461;52.356;10.704;2022-08-21T07:17:23;18.40;99.90
13742;DHT22;8461;52.356;10.704;2022-08-21T07:19:49;18.50;99.90
13742;DHT22;8461;52.356;10.704;2022-08-21T07:22:18;18.60;99.90
13742;DHT22;8461;52.356;10.704;2022-08-21T07:24:44;18.60;99.90
13742;DHT22;8461;52.356;10.704;2022-08-21T07:27:10;18.70;99.90
13742;DHT22;8461;52.356;10.704;2022-08-21T07:29:35;18.80;99.90
13742;DHT22;8461;52.356;10.704;2022-08-21T07:32:01;18.90;99.90
13742;DHT22;8461;52.356;10.704;2022-08-21T07:34:27;19.00;99.90
13742;DHT22;8461;52.356;10.704;2022-08-21T07:36:52;19.10;99.90
13742;DHT22;8461;52.356;10.704;2022-08-21T07:39:18;19.30;99.90
13742;DHT22;8461;52.356;10.704;2022-08-21T07:41:43;19.40;99.90
13742;DHT22;8461;52.356;10.704;2022-08-21T07:44:09;19.40;99.90
13742;DHT22;8461;52.356;10.704;2022-08-21T07:46:34;19.50;99.90
13742;DHT22;8461;52.356;10.704;2022-08-21T07:49:00;19.60;99.90
13742;DHT22;8461;52.356;10.704;2022-08-21T07:51:27;19.70;99.90
13742;DHT22;8461;52.356;10.704;2022-08-21T07:53:55;19.70;99.90
13742;DHT22;8461;52.356;10.704;2022-08-21T07:56:22;19.80;99.90
13742;DHT22;8461;52.356;10.704;2022-08-21T07:58:47;19.80;99.90
13742;DHT22;8461;52.356;10.704;2022-08-21T08:01:13;19.90;99.90
13742;DHT22;8461;52.356;10.704;2022-08-21T08:03:39;19.90;99.90
13742;DHT22;8461;52.356;10.704;2022-08-21T08:06:05;20.10;99.90
13742;DHT22;8461;52.356;10.704;2022-08-21T08:08:32;20.10;99.90
13742;DHT22;8461;52.356;10.704;2022-08-21T08:10:58;20.20;99.90
13742;DHT22;8461;52.356;10.704;2022-08-21T08:13:24;20.20;99.90
13742;DHT22;8461;52.356;10.704;2022-08-21T08:15:50;20.20;99.90
13742;DHT22;8461;52.356;10.704;2022-08-21T08:18:15;20.10;99.90
13742;DHT22;8461;52.356;10.704;2022-08-21T08:20:41;20.10;99.90
13742;DHT22;8461;52.356;10.704;2022-08-21T08:23:09;20.00;99.90
13742;DHT22;8461;52.356;10.704;2022-08-21T08:25:35;20.00;99.90
13742;DHT22;8461;52.356;10.704;2022-08-21T08:28:01;20.20;99.90
13742;DHT22;8461;52.356;10.704;2022-08-21T08:30:26;20.40;99.90
13742;DHT22;8461;52.356;10.704;2022-08-21T08:32:52;20.60;99.90
13742;DHT22;8461;52.356;10.704;2022-08-21T08:35:18;20.90;99.90
13742;DHT22;8461;52.356;10.704;2022-08-21T08:37:44;21.10;99.90
13742;DHT22;8461;52.356;10.704;2022-08-21T08:40:20;21.40;99.90
13742;DHT22;8461;52.356;10.704;2022-08-21T08:42:48;21.60;99.90
13742;DHT22;8461;52.356;10.704;2022-08-21T08:45:18;21.60;99.90
13742;DHT22;8461;52.356;10.704;2022-08-21T08:47:48;21.70;99.90
13742;DHT22;8461;52.356;10.704;2022-08-21T08:50:46;21.60;99.90
13742;DHT22;8461;52.356;10.704;2022-08-21T08:53:15;21.40;99.90
13742;DHT22;8461;52.356;10.704;2022-08-21T08:55:44;21.50;99.90
13742;DHT22;8461;52.356;10.704;2022-08-21T08:58:22;21.60;99.90
13742;DHT22;8461;52.356;10.704;2022-08-21T09:00:50;21.70;99.90
13742;DHT22;8461;52.356;10.704;2022-08-21T09:03:16;21.90;99.90
13742;DHT22;8461;52.356;10.704;2022-08-21T09:05:46;22.00;99.90
13742;DHT22;8461;52.356;10.704;2022-08-21T09:08:31;22.00;99.90
13742;DHT22;8461;52.356;10.704;2022-08-21T09:11:48;22.10;99.90
13742;DHT22;8461;52.356;10.704;2022-08-21T09:17:11;22.10;99.90
13742;DHT22;8461;52.356;10.704;2022-08-21T09:20:14;22.00;99.90
13742;DHT22;8461;52.356;10.704;2022-08-21T09:26:17;22.00;99.90
13742;DHT22;8461;52.356;10.704;2022-08-21T09:28:44;22.20;99.90
13742;DHT22;8461;52.356;10.704;2022-08-21T09:33:49;22.30;99.90
13742;DHT22;8461;52.356;10.704;2022-08-21T09:36:49;22.30;99.90
13742;DHT22;8461;52.356;10.704;2022-08-21T09:41:59;22.30;99.90
13742;DHT22;8461;52.356;10.704;2022-08-21T09:44:27;22.30;99.90
13742;DHT22;8461;52.356;10.704;2022-08-21T09:46:53;22.20;99.90
13742;DHT22;8461;52.356;10.704;2022-08-21T09:49:31;22.10;99.90
13742;DHT22;8461;52.356;10.704;2022-08-21T09:51:57;22.20;99.90
13742;DHT22;8461;52.356;10.704;2022-08-21T09:54:31;22.20;99.90
13742;DHT22;8461;52.356;10.704;2022-08-21T09:57:01;22.20;99.90
13742;DHT22;8461;52.356;10.704;2022-08-21T10:00:19;22.40;99.90
13742;DHT22;8461;52.356;10.704;2022-08-21T10:02:45;22.50;99.90
13742;DHT22;8461;52.356;10.704;2022-08-21T10:07:42;22.40;99.90
13742;DHT22;8461;52.356;10.704;2022-08-21T10:10:13;22.40;99.90
13742;DHT22;8461;52.356;10.704;2022-08-21T10:18:14;22.70;99.90
13742;DHT22;8461;52.356;10.704;2022-08-21T10:29:18;23.10;99.90
13742;DHT22;8461;52.356;10.704;2022-08-21T10:34:41;23.30;99.90
13742;DHT22;8461;52.356;10.704;2022-08-21T10:37:23;23.20;99.90
13742;DHT22;8461;52.356;10.704;2022-08-21T10:47:55;23.50;99.90
13742;DHT22;8461;52.356;10.704;2022-08-21T10:53:31;23.90;99.90
13742;DHT22;8461;52.356;10.704;2022-08-21T10:58:26;24.30;99.90
13742;DHT22;8461;52.356;10.704;2022-08-21T11:01:15;24.10;99.90
13742;DHT22;8461;52.356;10.704;2022-08-21T11:03:46;24.10;99.90
13742;DHT22;8461;52.356;10.704;2022-08-21T11:06:23;24.10;99.90
13742;DHT22;8461;52.356;10.704;2022-08-21T11:08:56;24.00;99.90
13742;DHT22;8461;52.356;10.704;2022-08-21T11:11:34;24.00;99.90
13742;DHT22;8461;52.356;10.704;2022-08-21T11:14:18;24.10;99.90
13742;DHT22;8461;52.356;10.704;2022-08-21T11:17:07;24.10;99.90
13742;DHT22;8461;52.356;10.704;2022-08-21T11:19:54;24.30;99.90
13742;DHT22;8461;52.356;10.704;2022-08-21T11:22:38;24.10;99.90
13742;DHT22;8461;52.356;10.704;2022-08-21T11:27:49;24.30;99.90
13742;DHT22;8461;52.356;10.704;2022-08-21T11:30:15;24.40;99.90
13742;DHT22;8461;52.356;10.704;2022-08-21T11:38:35;24.70;99.90
13742;DHT22;8461;52.356;10.704;2022-08-21T11:41:35;24.70;99.40
13742;DHT22;8461;52.356;10.704;2022-08-21T11:47:24;24.70;99.30
13742;DHT22;8461;52.356;10.704;2022-08-21T11:52:43;25.00;99.50
13742;DHT22;8461;52.356;10.704;2022-08-21T11:55:16;25.00;99.20
13742;DHT22;8461;52.356;10.704;2022-08-21T11:57:51;25.20;99.20
13742;DHT22;8461;52.356;10.704;2022-08-21T12:00:29;25.30;98.30
13742;DHT22;8461;52.356;10.704;2022-08-21T12:03:07;25.50;98.70
13742;DHT22;8461;52.356;10.704;2022-08-21T12:05:39;25.60;98.30
13742;DHT22;8461;52.356;10.704;2022-08-21T12:13:55;25.70;98.20
13742;DHT22;8461;52.356;10.704;2022-08-21T12:16:37;25.80;97.80
13742;DHT22;8461;52.356;10.704;2022-08-21T12:19:29;25.80;96.60
13742;DHT22;8461;52.356;10.704;2022-08-21T12:29:54;26.00;96.80
13742;DHT22;8461;52.356;10.704;2022-08-21T12:33:20;26.00;95.60
13742;DHT22;8461;52.356;10.704;2022-08-21T12:35:18;26.00;95.60
13742;DHT22;8461;52.356;10.704;2022-08-21T12:37:56;26.10;95.60
13742;DHT22;8461;52.356;10.704;2022-08-21T12:40:25;26.00;94.70
13742;DHT22;8461;52.356;10.704;2022-08-21T12:42:58;26.00;94.70
13742;DHT22;8461;52.356;10.704;2022-08-21T12:45:42;26.00;95.30
13742;DHT22;8461;52.356;10.704;2022-08-21T12:48:22;26.30;94.50
13742;DHT22;8461;52.356;10.704;2022-08-21T12:50:56;26.50;94.30
13742;DHT22;8461;52.356;10.704;2022-08-21T12:56:10;26.40;93.70
13742;DHT22;8461;52.356;10.704;2022-08-21T12:58:36;26.30;93.90
13742;DHT22;8461;52.356;10.704;2022-08-21T13:01:08;26.20;93.00
13742;DHT22;8461;52.356;10.704;2022-08-21T13:03:38;26.20;93.20
13742;DHT22;8461;52.356;10.704;2022-08-21T13:06:06;26.20;93.40
13742;DHT22;8461;52.356;10.704;2022-08-21T13:08:35;26.60;92.90
13742;DHT22;8461;52.356;10.704;2022-08-21T13:11:05;26.60;92.80
13742;DHT22;8461;52.356;10.704;2022-08-21T13:13:31;26.50;91.40
13742;DHT22;8461;52.356;10.704;2022-08-21T13:16:04;26.60;91.40
13742;DHT22;8461;52.356;10.704;2022-08-21T13:18:32;26.60;91.70
13742;DHT22;8461;52.356;10.704;2022-08-21T13:21:12;26.30;91.60
13742;DHT22;8461;52.356;10.704;2022-08-21T13:23:38;26.10;91.60
13742;DHT22;8461;52.356;10.704;2022-08-21T13:26:19;25.90;92.20
13742;DHT22;8461;52.356;10.704;2022-08-21T13:28:46;25.60;92.40
13742;DHT22;8461;52.356;10.704;2022-08-21T13:31:17;25.50;92.20
13742;DHT22;8461;52.356;10.704;2022-08-21T13:33:44;25.40;92.30
13742;DHT22;8461;52.356;10.704;2022-08-21T13:36:29;25.30;92.50
13742;DHT22;8461;52.356;10.704;2022-08-21T13:38:55;25.30;92.90
13742;DHT22;8461;52.356;10.704;2022-08-21T13:41:28;25.30;93.40
13742;DHT22;8461;52.356;10.704;2022-08-21T13:46:28;25.00;92.10
13742;DHT22;8461;52.356;10.704;2022-08-21T13:48:55;25.00;91.70
13742;DHT22;8461;52.356;10.704;2022-08-21T13:51:21;25.00;91.10
13742;DHT22;8461;52.356;10.704;2022-08-21T13:53:49;25.20;90.90
13742;DHT22;8461;52.356;10.704;2022-08-21T13:58:55;25.70;91.80
13742;DHT22;8461;52.356;10.704;2022-08-21T14:01:49;26.10;91.10
13742;DHT22;8461;52.356;10.704;2022-08-21T14:04:22;26.30;90.60
13742;DHT22;8461;52.356;10.704;2022-08-21T14:06:49;26.30;90.50
13742;DHT22;8461;52.356;10.704;2022-08-21T14:09:31;26.10;90.20
13742;DHT22;8461;52.356;10.704;2022-08-21T14:12:04;26.00;90.40
13742;DHT22;8461;52.356;10.704;2022-08-21T14:14:39;25.80;90.80
13742;DHT22;8461;52.356;10.704;2022-08-21T14:17:09;25.70;90.60
13742;DHT22;8461;52.356;10.704;2022-08-21T14:19:44;25.80;90.60
13742;DHT22;8461;52.356;10.704;2022-08-21T14:22:30;26.00;90.20
13742;DHT22;8461;52.356;10.704;2022-08-21T14:28:24;26.10;90.00
13742;DHT22;8461;52.356;10.704;2022-08-21T14:32:52;26.30;89.10
13742;DHT22;8461;52.356;10.704;2022-08-21T14:35:18;26.30;88.80
13742;DHT22;8461;52.356;10.704;2022-08-21T14:37:46;26.30;89.20
13742;DHT22;8461;52.356;10.704;2022-08-21T14:40:12;26.40;88.10
13742;DHT22;8461;52.356;10.704;2022-08-21T14:42:39;26.20;88.60
13742;DHT22;8461;52.356;10.704;2022-08-21T14:45:15;26.20;88.90
13742;DHT22;8461;52.356;10.704;2022-08-21T14:47:41;26.20;89.80
13742;DHT22;8461;52.356;10.704;2022-08-21T14:50:08;26.10;88.90
13742;DHT22;8461;52.356;10.704;2022-08-21T14:52:34;26.10;87.20
13742;DHT22;8461;52.356;10.704;2022-08-21T14:55:00;26.10;86.50
13742;DHT22;8461;52.356;10.704;2022-08-21T14:57:29;26.10;86.70
13742;DHT22;8461;52.356;10.704;2022-08-21T14:59:55;26.20;86.50
13742;DHT22;8461;52.356;10.704;2022-08-21T15:02:21;26.20;85.30
13742;DHT22;8461;52.356;10.704;2022-08-21T15:04:46;26.30;86.30
13742;DHT22;8461;52.356;10.704;2022-08-21T15:07:12;26.30;86.60
13742;DHT22;8461;52.356;10.704;2022-08-21T15:09:37;26.40;86.00
13742;DHT22;8461;52.356;10.704;2022-08-21T15:12:04;26.20;84.20
13742;DHT22;8461;52.356;10.704;2022-08-21T15:14:34;26.10;86.00
13742;DHT22;8461;52.356;10.704;2022-08-21T15:17:00;26.20;87.30
13742;DHT22;8461;52.356;10.704;2022-08-21T15:19:26;26.20;86.30
13742;DHT22;8461;52.356;10.704;2022-08-21T15:21:53;26.10;87.80
13742;DHT22;8461;52.356;10.704;2022-08-21T15:24:18;26.00;86.80
13742;DHT22;8461;52.356;10.704;2022-08-21T15:26:44;26.00;87.60
13742;DHT22;8461;52.356;10.704;2022-08-21T15:29:10;26.00;85.70
13742;DHT22;8461;52.356;10.704;2022-08-21T15:31:35;26.00;85.30
13742;DHT22;8461;52.356;10.704;2022-08-21T15:34:01;26.10;86.00
13742;DHT22;8461;52.356;10.704;2022-08-21T15:36:27;26.00;85.00
13742;DHT22;8461;52.356;10.704;2022-08-21T15:38:53;25.90;86.30
13742;DHT22;8461;52.356;10.704;2022-08-21T15:41:18;26.10;86.70
13742;DHT22;8461;52.356;10.704;2022-08-21T15:43:47;26.10;86.20
13742;DHT22;8461;52.356;10.704;2022-08-21T15:46:15;26.10;86.50
13742;DHT22;8461;52.356;10.704;2022-08-21T15:48:42;26.10;86.60
13742;DHT22;8461;52.356;10.704;2022-08-21T15:51:09;25.80;87.00
13742;DHT22;8461;52.356;10.704;2022-08-21T15:53:35;25.60;87.20
13742;DHT22;8461;52.356;10.704;2022-08-21T15:56:05;25.50;87.80
13742;DHT22;8461;52.356;10.704;2022-08-21T15:58:31;25.40;87.60
13742;DHT22;8461;52.356;10.704;2022-08-21T16:01:00;25.40;87.00
13742;DHT22;8461;52.356;10.704;2022-08-21T16:03:26;25.40;86.80
13742;DHT22;8461;52.356;10.704;2022-08-21T16:05:53;25.30;87.30
13742;DHT22;8461;52.356;10.704;2022-08-21T16:08:22;25.40;87.50
13742;DHT22;8461;52.356;10.704;2022-08-21T16:10:49;25.50;87.60
13742;DHT22;8461;52.356;10.704;2022-08-21T16:13:25;25.60;87.40
13742;DHT22;8461;52.356;10.704;2022-08-21T16:15:52;25.60;86.70
13742;DHT22;8461;52.356;10.704;2022-08-21T16:18:19;25.60;86.30
13742;DHT22;8461;52.356;10.704;2022-08-21T16:20:45;25.60;86.50
13742;DHT22;8461;52.356;10.704;2022-08-21T16:23:10;25.60;85.70
13742;DHT22;8461;52.356;10.704;2022-08-21T16:25:37;25.60;86.70
13742;DHT22;8461;52.356;10.704;2022-08-21T16:28:05;25.60;87.80
13742;DHT22;8461;52.356;10.704;2022-08-21T16:30:31;25.60;86.10
13742;DHT22;8461;52.356;10.704;2022-08-21T16:32:59;25.60;85.90
13742;DHT22;8461;52.356;10.704;2022-08-21T16:35:25;25.50;86.40
13742;DHT22;8461;52.356;10.704;2022-08-21T16:37:51;25.30;86.70
13742;DHT22;8461;52.356;10.704;2022-08-21T16:40:16;25.20;87.30
13742;DHT22;8461;52.356;10.704;2022-08-21T16:42:43;25.10;87.20
13742;DHT22;8461;52.356;10.704;2022-08-21T16:45:12;25.00;86.80
13742;DHT22;8461;52.356;10.704;2022-08-21T16:47:38;24.90;87.40
13742;DHT22;8461;52.356;10.704;2022-08-21T16:50:05;25.00;87.40
13742;DHT22;8461;52.356;10.704;2022-08-21T16:52:32;25.00;89.00
13742;DHT22;8461;52.356;10.704;2022-08-21T16:54:57;25.00;87.30
13742;DHT22;8461;52.356;10.704;2022-08-21T16:57:24;25.00;87.20
13742;DHT22;8461;52.356;10.704;2022-08-21T16:59:49;25.00;88.20
13742;DHT22;8461;52.356;10.704;2022-08-21T17:02:24;25.10;87.30
13742;DHT22;8461;52.356;10.704;2022-08-21T17:04:52;25.00;87.20
13742;DHT22;8461;52.356;10.704;2022-08-21T17:07:18;24.90;87.50
13742;DHT22;8461;52.356;10.704;2022-08-21T17:09:43;24.90;87.70